createdAt,value
2018-07-12T00:16:28.304Z,99.90
2018-07-12T00:18:56.150Z,99.90
2018-07-12T00:21:24.602Z,99.90
2018-07-12T00:23:52.479Z,99.90
2018-07-12T00:26:20.325Z,99.90
2018-07-12T00:46:53.445Z,99.90
2018-07-12T00:49:21.327Z,99.90
2018-07-12T00:51:49.133Z,99.90
2018-07-12T00:54:17.010Z,99.90
2018-07-12T00:56:44.956Z,99.90
2018-07-12T00:59:12.740Z,99.90
2018-07-12T01:01:40.572Z,99.90
2018-07-12T01:04:08.396Z,99.90
2018-07-12T01:06:36.256Z,99.90
2018-07-12T01:09:04.966Z,99.90
2018-07-12T01:11:33.029Z,99.90
2018-07-12T01:14:00.870Z,99.90
2018-07-12T01:16:28.724Z,99.90
2018-07-12T01:18:56.542Z,99.90
2018-07-12T01:21:24.378Z,99.90
2018-07-12T01:23:52.198Z,99.90
2018-07-12T01:26:20.115Z,99.90
2018-07-12T01:28:47.897Z,99.90
2018-07-12T01:33:44.380Z,99.90
2018-07-12T01:36:12.311Z,99.90
2018-07-12T01:38:40.139Z,99.90
2018-07-12T01:41:09.525Z,99.90
2018-07-12T02:04:10.211Z,99.90
2018-07-12T02:06:38.078Z,99.90
2018-07-12T02:09:06.387Z,99.90
2018-07-12T02:29:39.833Z,99.90
2018-07-12T02:32:07.775Z,99.90
2018-07-12T02:34:35.605Z,99.90
2018-07-12T02:55:08.421Z,99.90
2018-07-12T02:57:36.291Z,99.90
2018-07-12T03:00:04.098Z,99.90
2018-07-12T03:02:31.953Z,99.90
2018-07-12T03:04:59.819Z,99.90
2018-07-12T03:25:32.531Z,99.90
2018-07-12T03:28:00.325Z,99.90
2018-07-12T03:30:28.273Z,99.90
2018-07-12T03:32:57.030Z,99.90
2018-07-12T03:35:24.877Z,99.90
2018-07-12T03:37:53.465Z,99.90
2018-07-12T03:58:25.838Z,99.90
2018-07-12T04:00:53.730Z,99.90
2018-07-12T04:03:21.516Z,99.90
2018-07-12T04:05:49.377Z,99.90
2018-07-12T04:08:17.241Z,99.90
2018-07-12T04:10:45.046Z,99.90
2018-07-12T04:13:13.621Z,99.90
2018-07-12T04:15:42.246Z,99.90
2018-07-12T04:18:10.086Z,99.90
2018-07-12T04:20:37.999Z,99.90
2018-07-12T04:41:10.437Z,99.90
2018-07-12T04:43:38.337Z,99.90
2018-07-12T04:46:06.238Z,99.90
2018-07-12T04:48:34.114Z,99.90
2018-07-12T04:51:01.932Z,99.90
2018-07-12T04:53:29.844Z,99.90
2018-07-12T05:14:02.571Z,99.90
2018-07-12T05:34:35.033Z,99.90
2018-07-12T05:55:09.106Z,99.90
2018-07-12T05:57:38.322Z,99.90
2018-07-12T06:00:07.681Z,99.90
2018-07-12T06:02:37.099Z,99.90
2018-07-12T06:05:07.576Z,99.90
2018-07-12T06:07:36.729Z,99.90
2018-07-12T06:10:06.569Z,99.90
2018-07-12T06:12:35.837Z,99.90
2018-07-12T06:33:09.235Z,99.90
2018-07-12T06:35:38.519Z,99.90
2018-07-12T06:40:36.729Z,99.90
2018-07-12T06:43:06.833Z,99.90
2018-07-12T07:03:41.337Z,99.90
2018-07-12T07:06:12.338Z,99.90
2018-07-12T07:08:41.532Z,99.90
2018-07-12T07:11:11.887Z,99.90
2018-07-12T07:13:41.822Z,99.90
2018-07-12T07:16:11.045Z,99.90
2018-07-12T07:18:40.250Z,99.90
2018-07-12T07:21:09.474Z,99.90
2018-07-12T07:23:38.882Z,99.90
2018-07-12T07:26:08.379Z,99.90
2018-07-12T07:28:37.632Z,99.90
2018-07-12T07:49:11.720Z,99.90
2018-07-12T07:51:42.152Z,99.90
2018-07-12T07:56:41.841Z,99.90
2018-07-12T07:59:12.437Z,99.90
2018-07-12T08:01:41.765Z,99.90
2018-07-12T08:04:11.882Z,97.10
2018-07-12T08:06:41.920Z,99.90
2018-07-12T08:09:11.165Z,99.90
2018-07-12T08:11:41.774Z,99.90
2018-07-12T08:14:11.083Z,99.90
2018-07-12T08:34:44.211Z,92.40
2018-07-12T08:55:17.526Z,79.70
2018-07-12T08:57:47.194Z,80.50
2018-07-12T09:02:46.235Z,85.60
2018-07-12T09:05:15.541Z,87.20
2018-07-12T09:10:14.605Z,79.70
2018-07-12T09:12:44.166Z,83.20
2018-07-12T09:15:13.829Z,86.10
2018-07-12T09:17:44.095Z,83.10
2018-07-12T09:20:13.491Z,79.80
2018-07-12T09:40:54.643Z,79.00
2018-07-12T10:01:33.980Z,68.10
2018-07-12T10:04:03.973Z,70.10
2018-07-12T10:06:38.074Z,67.40
2018-07-12T10:09:13.022Z,68.70
2018-07-12T10:11:48.269Z,65.20
2018-07-12T10:14:23.710Z,70.90
2018-07-12T10:16:58.909Z,67.50
2018-07-12T10:19:28.246Z,73.40
2018-07-12T10:21:57.547Z,71.60
2018-07-12T10:24:26.832Z,71.90
2018-07-12T10:26:56.041Z,74.20
2018-07-12T10:47:30.609Z,66.00
2018-07-12T10:50:01.858Z,65.60
2018-07-12T11:10:29.532Z,68.20
2018-07-12T11:13:10.387Z,69.40
2018-07-12T11:18:14.122Z,72.40
2018-07-12T11:20:43.594Z,74.80
2018-07-12T11:23:12.857Z,71.20
2018-07-12T11:43:46.933Z,62.90
2018-07-12T11:46:17.530Z,64.10
2018-07-12T11:48:48.225Z,66.60
2018-07-12T11:51:17.438Z,61.90
2018-07-12T11:53:48.393Z,61.40
2018-07-12T11:56:17.659Z,60.10
2018-07-12T11:58:46.896Z,64.20
2018-07-12T12:01:16.085Z,58.70
2018-07-12T12:21:50.388Z,62.40
2018-07-12T12:24:19.718Z,56.70
2018-07-12T12:26:48.864Z,57.70
2018-07-12T12:29:18.265Z,58.10
2018-07-12T12:31:47.783Z,59.30
2018-07-12T12:34:17.116Z,58.90
2018-07-12T12:36:47.534Z,58.20
2018-07-12T12:39:16.844Z,59.90
2018-07-12T12:41:46.643Z,57.20
2018-07-12T12:44:16.085Z,58.60
2018-07-12T12:46:45.373Z,54.80
2018-07-12T12:49:15.316Z,56.20
2018-07-12T12:51:44.536Z,56.00
2018-07-12T12:54:14.399Z,57.10
2018-07-12T12:56:44.810Z,55.10
2018-07-12T12:59:14.691Z,54.80
2018-07-12T13:01:44.507Z,55.80
2018-07-12T13:04:13.750Z,57.00
2018-07-12T13:06:43.126Z,55.50
2018-07-12T13:09:12.449Z,52.20
2018-07-12T13:11:42.367Z,54.80
2018-07-12T13:14:11.838Z,53.00
2018-07-12T13:16:41.999Z,52.50
2018-07-12T13:19:11.212Z,49.20
2018-07-12T13:21:40.406Z,53.00
2018-07-12T13:24:09.546Z,53.90
2018-07-12T13:44:44.443Z,49.10
2018-07-12T13:47:13.739Z,48.30
2018-07-12T13:49:44.031Z,47.10
2018-07-12T13:52:14.031Z,45.70
2018-07-12T13:54:43.200Z,44.20
2018-07-12T13:57:12.892Z,43.90
2018-07-12T13:59:42.128Z,41.80
2018-07-12T14:02:11.376Z,41.80
2018-07-12T14:04:40.577Z,41.80
2018-07-12T14:07:10.657Z,41.70
2018-07-12T14:09:39.895Z,39.80
2018-07-12T14:12:09.299Z,39.80
2018-07-12T14:14:38.808Z,39.70
2018-07-12T14:17:08.054Z,37.30
2018-07-12T14:19:37.373Z,39.30
2018-07-12T14:22:07.493Z,37.10
2018-07-12T14:42:40.942Z,34.50
2018-07-12T14:45:11.393Z,34.40
2018-07-12T14:47:40.672Z,35.70
2018-07-12T14:50:10.939Z,36.40
2018-07-12T14:52:40.274Z,34.20
2018-07-12T14:55:09.488Z,34.10
2018-07-12T14:57:38.729Z,30.00
2018-07-12T15:18:13.860Z,31.10
2018-07-12T15:20:43.787Z,31.80
2018-07-12T15:23:13.592Z,32.10
2018-07-12T15:25:42.873Z,31.70
2018-07-12T15:28:12.290Z,32.70
2018-07-12T15:30:41.587Z,33.50
2018-07-12T15:33:10.822Z,33.90
2018-07-12T15:35:41.527Z,35.00
2018-07-12T15:38:10.869Z,35.70
2018-07-12T15:40:40.053Z,35.00
2018-07-12T16:01:16.469Z,31.10
2018-07-12T16:03:45.672Z,32.50
2018-07-12T16:06:14.995Z,32.90
2018-07-12T16:08:44.452Z,34.70
2018-07-12T16:11:14.545Z,33.90
2018-07-12T16:16:13.526Z,37.50
2018-07-12T16:18:42.750Z,37.80
2018-07-12T16:39:16.867Z,40.80
2018-07-12T16:41:46.736Z,41.80
2018-07-12T16:44:15.971Z,43.00
2018-07-12T16:46:45.731Z,43.00
2018-07-12T16:49:15.010Z,40.80
2018-07-12T16:51:44.825Z,44.20
2018-07-12T16:54:14.046Z,41.30
2018-07-12T16:56:43.952Z,41.40
2018-07-12T16:59:13.218Z,41.20
2018-07-12T17:01:43.209Z,41.70
2018-07-12T17:04:12.422Z,43.10
2018-07-12T17:06:41.905Z,43.80
2018-07-12T17:09:11.813Z,42.40
2018-07-12T17:11:41.642Z,41.70
2018-07-12T17:14:11.697Z,42.30
2018-07-12T17:16:40.868Z,45.90
2018-07-12T17:19:10.133Z,48.40
2018-07-12T17:21:40.087Z,48.80
2018-07-12T17:24:09.436Z,50.20
2018-07-12T17:26:38.684Z,50.90
2018-07-12T17:29:09.454Z,51.60
2018-07-12T17:31:38.983Z,52.40
2018-07-12T17:34:09.409Z,52.50
2018-07-12T17:54:44.680Z,58.40
2018-07-12T17:57:14.534Z,57.60
2018-07-12T17:59:43.813Z,57.00
2018-07-12T18:02:13.050Z,56.80
2018-07-12T18:22:47.690Z,61.10
2018-07-12T18:25:17.549Z,61.50
2018-07-12T18:27:48.848Z,62.80
2018-07-12T18:30:18.221Z,63.00
2018-07-12T18:32:48.108Z,63.70
2018-07-12T18:53:22.189Z,83.60
2018-07-12T18:55:51.519Z,84.00
2018-07-12T18:58:21.057Z,84.00
2018-07-12T19:00:50.380Z,83.00
2018-07-12T19:03:20.345Z,84.40
2018-07-12T19:23:54.193Z,86.50
2018-07-12T19:26:24.312Z,90.40
2018-07-12T19:28:53.726Z,89.30
2018-07-12T19:31:23.851Z,98.60
2018-07-12T19:51:57.270Z,99.70
2018-07-12T19:54:28.187Z,93.70
2018-07-12T19:56:58.333Z,99.90
2018-07-12T19:59:27.604Z,95.10
2018-07-12T20:01:58.007Z,93.60
2018-07-12T20:04:27.869Z,93.50
2018-07-12T20:25:01.869Z,95.80
2018-07-12T20:27:31.874Z,96.20
2018-07-12T20:48:06.479Z,99.90
2018-07-12T20:50:36.474Z,99.90
2018-07-12T20:55:35.509Z,99.90
2018-07-12T21:16:09.423Z,93.60
2018-07-12T21:18:38.736Z,95.80
2018-07-12T21:21:07.946Z,98.80
2018-07-12T21:23:37.220Z,94.40
2018-07-12T21:26:07.135Z,99.90
2018-07-12T21:28:36.437Z,99.90
2018-07-12T21:49:09.991Z,99.90
2018-07-12T21:51:39.918Z,99.90
2018-07-12T21:54:09.050Z,99.90
2018-07-12T21:56:38.659Z,99.90
2018-07-12T21:59:08.153Z,99.90
2018-07-12T22:01:37.438Z,99.90
2018-07-12T22:04:06.715Z,99.90
2018-07-12T22:08:20.670Z,99.90
2018-07-12T22:10:51.190Z,99.90
2018-07-12T22:13:20.982Z,99.90
2018-07-12T22:15:50.257Z,99.90
2018-07-12T22:18:20.089Z,99.90
2018-07-12T22:20:49.340Z,99.90
2018-07-12T22:23:18.703Z,99.90
2018-07-12T22:25:48.833Z,99.90
2018-07-12T22:28:18.057Z,99.90
2018-07-12T22:30:47.770Z,99.90
2018-07-12T22:33:17.621Z,99.90
2018-07-12T22:35:46.868Z,99.90
2018-07-12T22:38:16.745Z,99.90
2018-07-12T22:40:45.957Z,99.90
2018-07-12T22:43:15.202Z,99.90
2018-07-12T22:45:45.030Z,99.90
2018-07-12T22:48:15.175Z,99.90
2018-07-12T22:50:44.298Z,99.90
2018-07-12T23:11:20.037Z,99.90
2018-07-12T23:13:49.879Z,99.90
2018-07-12T23:16:19.677Z,99.90
2018-07-12T23:18:49.727Z,99.90
2018-07-12T23:21:19.637Z,99.90
2018-07-12T23:23:48.918Z,99.90
2018-07-12T23:26:18.910Z,99.90
2018-07-12T23:28:49.206Z,99.90
2018-07-12T23:31:18.405Z,99.90
2018-07-12T23:33:48.169Z,99.90
2018-07-12T23:36:18.416Z,99.90
2018-07-12T23:38:48.552Z,99.90
2018-07-12T23:41:17.845Z,99.90
2018-07-12T23:43:47.907Z,99.90
2018-07-12T23:46:17.064Z,99.90
2018-07-12T23:48:46.444Z,99.90
2018-07-12T23:51:16.961Z,99.90
2018-07-12T23:53:46.181Z,99.90
2018-07-12T23:56:15.714Z,99.90
2018-07-12T23:58:45.088Z,99.90
